sensor_id;sensor_type;location;lat;lon;timestamp;temperature;humidity
65036;DHT22;51603;49.300;8.880;2022-09-03T00:01:45;17.40;62.10
65036;DHT22;51603;49.300;8.880;2022-09-03T00:04:26;17.40;62.20
65036;DHT22;51603;49.300;8.880;2022-09-03T00:07:03;17.40;62.20
65036;DHT22;51603;49.300;8.880;2022-09-03T00:09:35;17.40;62.20
65036;DHT22;51603;49.300;8.880;2022-09-03T00:12:20;17.40;62.40
65036;DHT22;51603;49.300;8.880;2022-09-03T00:15:01;17.50;62.60
65036;DHT22;51603;49.300;8.880;2022-09-03T00:17:31;17.40;62.40
65036;DHT22;51603;49.300;8.880;2022-09-03T00:22:42;17.40;62.30
65036;DHT22;51603;49.300;8.880;2022-09-03T00:25:11;17.40;62.70
65036;DHT22;51603;49.300;8.880;2022-09-03T00:27:39;17.40;62.50
65036;DHT22;51603;49.300;8.880;2022-09-03T00:30:13;17.40;62.60
65036;DHT22;51603;49.300;8.880;2022-09-03T00:32:42;17.40;62.50
65036;DHT22;51603;49.300;8.880;2022-09-03T00:38:01;17.40;62.60
65036;DHT22;51603;49.300;8.880;2022-09-03T00:46:20;17.40;62.90
65036;DHT22;51603;49.300;8.880;2022-09-03T00:49:09;17.40;62.60
65036;DHT22;51603;49.300;8.880;2022-09-03T00:54:43;17.40;63.00
65036;DHT22;51603;49.300;8.880;2022-09-03T01:03:34;17.40;63.20
65036;DHT22;51603;49.300;8.880;2022-09-03T01:06:18;17.40;63.10
65036;DHT22;51603;49.300;8.880;2022-09-03T01:09:37;17.40;63.30
65036;DHT22;51603;49.300;8.880;2022-09-03T01:14:42;17.40;63.60
65036;DHT22;51603;49.300;8.880;2022-09-03T01:37:14;17.40;64.00
65036;DHT22;51603;49.300;8.880;2022-09-03T01:45:14;17.30;64.60
65036;DHT22;51603;49.300;8.880;2022-09-03T02:02:06;17.30;65.00
65036;DHT22;51603;49.300;8.880;2022-09-03T02:04:34;17.30;65.30
65036;DHT22;51603;49.300;8.880;2022-09-03T02:07:01;17.30;65.20
65036;DHT22;51603;49.300;8.880;2022-09-03T02:09:27;17.30;65.20
65036;DHT22;51603;49.300;8.880;2022-09-03T02:11:57;17.30;65.40
65036;DHT22;51603;49.300;8.880;2022-09-03T02:14:28;17.30;65.50
65036;DHT22;51603;49.300;8.880;2022-09-03T02:16:57;17.30;65.40
65036;DHT22;51603;49.300;8.880;2022-09-03T02:19:26;17.30;65.90
65036;DHT22;51603;49.300;8.880;2022-09-03T02:21:53;17.20;65.70
65036;DHT22;51603;49.300;8.880;2022-09-03T02:24:19;17.30;65.90
65036;DHT22;51603;49.300;8.880;2022-09-03T02:26:45;17.30;66.10
65036;DHT22;51603;49.300;8.880;2022-09-03T02:29:12;17.20;65.90
65036;DHT22;51603;49.300;8.880;2022-09-03T02:31:38;17.20;66.00
65036;DHT22;51603;49.300;8.880;2022-09-03T02:34:04;17.20;66.00
65036;DHT22;51603;49.300;8.880;2022-09-03T02:36:41;17.20;66.40
65036;DHT22;51603;49.300;8.880;2022-09-03T02:39:08;17.20;66.70
65036;DHT22;51603;49.300;8.880;2022-09-03T02:41:33;17.10;66.40
65036;DHT22;51603;49.300;8.880;2022-09-03T02:44:12;17.10;66.70
65036;DHT22;51603;49.300;8.880;2022-09-03T02:46:47;17.10;67.20
65036;DHT22;51603;49.300;8.880;2022-09-03T02:49:15;17.10;67.10
65036;DHT22;51603;49.300;8.880;2022-09-03T02:51:42;17.10;67.40
65036;DHT22;51603;49.300;8.880;2022-09-03T02:54:09;17.10;67.50
65036;DHT22;51603;49.300;8.880;2022-09-03T02:56:35;17.10;67.60
65036;DHT22;51603;49.300;8.880;2022-09-03T02:59:02;17.10;67.90
65036;DHT22;51603;49.300;8.880;2022-09-03T03:01:28;17.10;67.80
65036;DHT22;51603;49.300;8.880;2022-09-03T03:03:53;17.10;68.10
65036;DHT22;51603;49.300;8.880;2022-09-03T03:06:20;17.10;68.30
65036;DHT22;51603;49.300;8.880;2022-09-03T03:08:46;17.00;69.20
65036;DHT22;51603;49.300;8.880;2022-09-03T03:11:12;17.10;68.70
65036;DHT22;51603;49.300;8.880;2022-09-03T03:13:43;17.00;68.60
65036;DHT22;51603;49.300;8.880;2022-09-03T03:16:10;17.00;69.00
65036;DHT22;51603;49.300;8.880;2022-09-03T03:18:35;17.00;69.30
65036;DHT22;51603;49.300;8.880;2022-09-03T03:21:09;16.90;69.30
65036;DHT22;51603;49.300;8.880;2022-09-03T03:23:36;16.90;69.70
65036;DHT22;51603;49.300;8.880;2022-09-03T03:26:08;16.90;69.70
65036;DHT22;51603;49.300;8.880;2022-09-03T03:28:34;16.80;69.80
65036;DHT22;51603;49.300;8.880;2022-09-03T03:31:07;16.80;70.10
65036;DHT22;51603;49.300;8.880;2022-09-03T03:33:33;16.80;70.40
65036;DHT22;51603;49.300;8.880;2022-09-03T03:36:03;16.70;70.50
65036;DHT22;51603;49.300;8.880;2022-09-03T03:38:29;16.70;70.70
65036;DHT22;51603;49.300;8.880;2022-09-03T03:40:55;16.70;71.80
65036;DHT22;51603;49.300;8.880;2022-09-03T03:43:20;16.70;71.30
65036;DHT22;51603;49.300;8.880;2022-09-03T03:45:55;16.70;71.30
65036;DHT22;51603;49.300;8.880;2022-09-03T03:48:21;16.70;71.70
65036;DHT22;51603;49.300;8.880;2022-09-03T03:50:46;16.70;71.90
65036;DHT22;51603;49.300;8.880;2022-09-03T03:53:12;16.70;71.90
65036;DHT22;51603;49.300;8.880;2022-09-03T03:55:37;16.70;72.00
65036;DHT22;51603;49.300;8.880;2022-09-03T03:58:03;16.70;72.30
65036;DHT22;51603;49.300;8.880;2022-09-03T04:00:29;16.70;72.50
65036;DHT22;51603;49.300;8.880;2022-09-03T04:02:54;16.70;72.50
65036;DHT22;51603;49.300;8.880;2022-09-03T04:05:20;16.60;72.60
65036;DHT22;51603;49.300;8.880;2022-09-03T04:07:45;16.60;73.00
65036;DHT22;51603;49.300;8.880;2022-09-03T04:10:11;16.60;73.20
65036;DHT22;51603;49.300;8.880;2022-09-03T04:12:37;16.60;73.30
65036;DHT22;51603;49.300;8.880;2022-09-03T04:15:03;16.60;73.50
65036;DHT22;51603;49.300;8.880;2022-09-03T04:17:29;16.60;73.80
65036;DHT22;51603;49.300;8.880;2022-09-03T04:19:55;16.70;74.00
65036;DHT22;51603;49.300;8.880;2022-09-03T04:22:20;16.70;74.80
65036;DHT22;51603;49.300;8.880;2022-09-03T04:24:46;16.70;74.80
65036;DHT22;51603;49.300;8.880;2022-09-03T04:27:11;16.70;74.80
65036;DHT22;51603;49.300;8.880;2022-09-03T04:29:37;16.70;75.20
65036;DHT22;51603;49.300;8.880;2022-09-03T04:32:02;16.70;75.40
65036;DHT22;51603;49.300;8.880;2022-09-03T04:34:46;16.70;75.60
65036;DHT22;51603;49.300;8.880;2022-09-03T04:37:12;16.70;75.60
65036;DHT22;51603;49.300;8.880;2022-09-03T04:39:37;16.70;75.70
65036;DHT22;51603;49.300;8.880;2022-09-03T04:42:03;16.60;76.00
65036;DHT22;51603;49.300;8.880;2022-09-03T04:44:29;16.60;76.00
65036;DHT22;51603;49.300;8.880;2022-09-03T04:46:54;16.60;76.20
65036;DHT22;51603;49.300;8.880;2022-09-03T04:49:20;16.70;76.70
65036;DHT22;51603;49.300;8.880;2022-09-03T04:51:45;16.70;76.50
65036;DHT22;51603;49.300;8.880;2022-09-03T04:54:11;16.70;76.50
65036;DHT22;51603;49.300;8.880;2022-09-03T04:56:37;16.70;76.90
65036;DHT22;51603;49.300;8.880;2022-09-03T04:59:06;16.70;77.00
65036;DHT22;51603;49.300;8.880;2022-09-03T05:01:34;16.70;77.00
65036;DHT22;51603;49.300;8.880;2022-09-03T05:04:00;16.70;77.50
65036;DHT22;51603;49.300;8.880;2022-09-03T05:06:27;16.70;77.50
65036;DHT22;51603;49.300;8.880;2022-09-03T05:08:54;16.70;80.40
65036;DHT22;51603;49.300;8.880;2022-09-03T05:11:20;16.70;84.50
65036;DHT22;51603;49.300;8.880;2022-09-03T05:13:47;16.60;88.10
65036;DHT22;51603;49.300;8.880;2022-09-03T05:16:14;16.60;91.60
65036;DHT22;51603;49.300;8.880;2022-09-03T05:18:40;16.60;93.00
65036;DHT22;51603;49.300;8.880;2022-09-03T05:21:17;16.50;95.20
65036;DHT22;51603;49.300;8.880;2022-09-03T05:23:48;16.40;97.40
65036;DHT22;51603;49.300;8.880;2022-09-03T05:26:20;16.30;99.20
65036;DHT22;51603;49.300;8.880;2022-09-03T05:28:47;16.30;99.90
65036;DHT22;51603;49.300;8.880;2022-09-03T05:31:15;16.20;99.90
65036;DHT22;51603;49.300;8.880;2022-09-03T05:33:43;16.10;99.90
65036;DHT22;51603;49.300;8.880;2022-09-03T05:36:12;16.10;99.90
65036;DHT22;51603;49.300;8.880;2022-09-03T05:38:38;16.00;99.90
65036;DHT22;51603;49.300;8.880;2022-09-03T05:41:06;16.00;99.90
65036;DHT22;51603;49.300;8.880;2022-09-03T05:43:33;15.90;99.90
65036;DHT22;51603;49.300;8.880;2022-09-03T05:46:03;15.90;99.90
65036;DHT22;51603;49.300;8.880;2022-09-03T05:48:31;15.90;99.90
65036;DHT22;51603;49.300;8.880;2022-09-03T05:51:05;15.90;99.90
65036;DHT22;51603;49.300;8.880;2022-09-03T05:53:34;15.90;99.90
65036;DHT22;51603;49.300;8.880;2022-09-03T05:56:02;15.80;99.90
65036;DHT22;51603;49.300;8.880;2022-09-03T05:58:33;15.70;99.90
65036;DHT22;51603;49.300;8.880;2022-09-03T06:00:59;15.70;99.90
65036;DHT22;51603;49.300;8.880;2022-09-03T06:03:25;15.80;99.90
65036;DHT22;51603;49.300;8.880;2022-09-03T06:05:51;15.80;99.90
65036;DHT22;51603;49.300;8.880;2022-09-03T06:08:17;15.90;99.90
65036;DHT22;51603;49.300;8.880;2022-09-03T06:10:43;15.90;99.90
65036;DHT22;51603;49.300;8.880;2022-09-03T06:13:08;16.00;99.90
65036;DHT22;51603;49.300;8.880;2022-09-03T06:15:34;15.90;99.90
65036;DHT22;51603;49.300;8.880;2022-09-03T06:18:00;15.90;99.90
65036;DHT22;51603;49.300;8.880;2022-09-03T06:20:25;15.90;99.90
65036;DHT22;51603;49.300;8.880;2022-09-03T06:22:53;15.90;99.90
65036;DHT22;51603;49.300;8.880;2022-09-03T06:25:19;16.00;99.90
65036;DHT22;51603;49.300;8.880;2022-09-03T06:27:45;16.10;99.90
65036;DHT22;51603;49.300;8.880;2022-09-03T06:30:12;16.20;99.90
65036;DHT22;51603;49.300;8.880;2022-09-03T06:32:47;16.20;99.90
65036;DHT22;51603;49.300;8.880;2022-09-03T06:35:14;16.30;99.90
65036;DHT22;51603;49.300;8.880;2022-09-03T06:37:40;16.40;99.90
65036;DHT22;51603;49.300;8.880;2022-09-03T06:40:07;16.40;99.90
65036;DHT22;51603;49.300;8.880;2022-09-03T06:42:40;16.50;99.90
65036;DHT22;51603;49.300;8.880;2022-09-03T06:45:08;16.60;99.90
65036;DHT22;51603;49.300;8.880;2022-09-03T06:47:34;16.60;99.90
65036;DHT22;51603;49.300;8.880;2022-09-03T06:50:00;16.70;99.90
65036;DHT22;51603;49.300;8.880;2022-09-03T06:52:26;16.80;99.90
65036;DHT22;51603;49.300;8.880;2022-09-03T06:54:52;16.80;99.90
65036;DHT22;51603;49.300;8.880;2022-09-03T06:57:17;16.90;99.90
65036;DHT22;51603;49.300;8.880;2022-09-03T06:59:43;16.90;99.90
65036;DHT22;51603;49.300;8.880;2022-09-03T07:02:09;17.00;99.90
65036;DHT22;51603;49.300;8.880;2022-09-03T07:04:34;17.00;99.90
65036;DHT22;51603;49.300;8.880;2022-09-03T07:07:00;17.00;99.90
65036;DHT22;51603;49.300;8.880;2022-09-03T07:09:26;17.10;99.90
65036;DHT22;51603;49.300;8.880;2022-09-03T07:11:53;17.10;99.90
65036;DHT22;51603;49.300;8.880;2022-09-03T07:14:20;17.00;99.90
65036;DHT22;51603;49.300;8.880;2022-09-03T07:16:47;17.10;99.90
65036;DHT22;51603;49.300;8.880;2022-09-03T07:19:14;17.10;99.90
65036;DHT22;51603;49.300;8.880;2022-09-03T07:21:40;17.00;99.90
65036;DHT22;51603;49.300;8.880;2022-09-03T07:24:08;16.80;99.90
65036;DHT22;51603;49.300;8.880;2022-09-03T07:26:37;16.70;99.90
65036;DHT22;51603;49.300;8.880;2022-09-03T07:29:04;16.80;99.90
65036;DHT22;51603;49.300;8.880;2022-09-03T07:31:32;16.80;99.90
65036;DHT22;51603;49.300;8.880;2022-09-03T07:34:02;16.80;99.90
65036;DHT22;51603;49.300;8.880;2022-09-03T07:36:34;16.80;99.90
65036;DHT22;51603;49.300;8.880;2022-09-03T07:39:00;16.80;99.90
65036;DHT22;51603;49.300;8.880;2022-09-03T07:41:26;16.80;99.90
65036;DHT22;51603;49.300;8.880;2022-09-03T07:43:52;16.90;99.90
65036;DHT22;51603;49.300;8.880;2022-09-03T07:46:22;16.90;99.90
65036;DHT22;51603;49.300;8.880;2022-09-03T07:48:53;16.90;99.90
65036;DHT22;51603;49.300;8.880;2022-09-03T07:51:20;16.90;99.90
65036;DHT22;51603;49.300;8.880;2022-09-03T07:53:47;16.90;99.90
65036;DHT22;51603;49.300;8.880;2022-09-03T07:56:14;16.90;99.90
65036;DHT22;51603;49.300;8.880;2022-09-03T07:58:40;16.70;99.90
65036;DHT22;51603;49.300;8.880;2022-09-03T08:01:14;16.50;99.90
65036;DHT22;51603;49.300;8.880;2022-09-03T08:03:53;16.40;99.90
65036;DHT22;51603;49.300;8.880;2022-09-03T08:06:21;16.40;99.90
65036;DHT22;51603;49.300;8.880;2022-09-03T08:08:48;16.40;99.90
65036;DHT22;51603;49.300;8.880;2022-09-03T08:11:17;16.50;99.90
65036;DHT22;51603;49.300;8.880;2022-09-03T08:13:52;16.60;99.90
65036;DHT22;51603;49.300;8.880;2022-09-03T08:16:18;16.80;99.90
65036;DHT22;51603;49.300;8.880;2022-09-03T08:18:44;17.00;99.90
65036;DHT22;51603;49.300;8.880;2022-09-03T08:21:16;17.10;99.90
65036;DHT22;51603;49.300;8.880;2022-09-03T08:23:44;17.20;99.90
65036;DHT22;51603;49.300;8.880;2022-09-03T08:26:11;17.30;99.90
65036;DHT22;51603;49.300;8.880;2022-09-03T08:28:37;17.30;99.90
65036;DHT22;51603;49.300;8.880;2022-09-03T08:31:07;17.30;99.90
65036;DHT22;51603;49.300;8.880;2022-09-03T08:33:37;17.30;99.90
65036;DHT22;51603;49.300;8.880;2022-09-03T08:36:08;17.20;99.90
65036;DHT22;51603;49.300;8.880;2022-09-03T08:38:35;17.20;99.90
65036;DHT22;51603;49.300;8.880;2022-09-03T08:41:15;17.20;99.90
65036;DHT22;51603;49.300;8.880;2022-09-03T08:46:43;17.10;99.90
65036;DHT22;51603;49.300;8.880;2022-09-03T08:49:14;17.10;99.90
65036;DHT22;51603;49.300;8.880;2022-09-03T08:51:43;17.00;99.90
65036;DHT22;51603;49.300;8.880;2022-09-03T08:54:10;17.00;99.90
65036;DHT22;51603;49.300;8.880;2022-09-03T08:56:39;17.00;99.90
65036;DHT22;51603;49.300;8.880;2022-09-03T08:59:07;16.90;99.90
65036;DHT22;51603;49.300;8.880;2022-09-03T09:04:29;16.80;99.90
65036;DHT22;51603;49.300;8.880;2022-09-03T09:07:25;16.80;99.90
65036;DHT22;51603;49.300;8.880;2022-09-03T09:10:21;16.70;99.90
65036;DHT22;51603;49.300;8.880;2022-09-03T09:13:13;16.60;99.90
65036;DHT22;51603;49.300;8.880;2022-09-03T09:16:18;16.50;99.90
65036;DHT22;51603;49.300;8.880;2022-09-03T09:19:10;16.50;99.90
65036;DHT22;51603;49.300;8.880;2022-09-03T09:21:52;16.40;99.90
65036;DHT22;51603;49.300;8.880;2022-09-03T09:24:24;16.40;99.90
65036;DHT22;51603;49.300;8.880;2022-09-03T09:27:00;16.30;99.90
65036;DHT22;51603;49.300;8.880;2022-09-03T09:29:34;16.40;99.90
65036;DHT22;51603;49.300;8.880;2022-09-03T09:32:00;16.60;99.90
65036;DHT22;51603;49.300;8.880;2022-09-03T09:34:26;16.70;99.90
65036;DHT22;51603;49.300;8.880;2022-09-03T09:36:53;16.80;99.90
65036;DHT22;51603;49.300;8.880;2022-09-03T09:39:20;17.10;99.90
65036;DHT22;51603;49.300;8.880;2022-09-03T09:42:05;17.30;99.90
65036;DHT22;51603;49.300;8.880;2022-09-03T09:44:34;17.50;99.90
65036;DHT22;51603;49.300;8.880;2022-09-03T09:47:03;17.50;99.90
65036;DHT22;51603;49.300;8.880;2022-09-03T09:49:33;17.40;99.90
65036;DHT22;51603;49.300;8.880;2022-09-03T09:52:01;17.40;99.90
65036;DHT22;51603;49.300;8.880;2022-09-03T09:54:27;17.20;99.90
65036;DHT22;51603;49.300;8.880;2022-09-03T09:57:04;17.20;99.90
65036;DHT22;51603;49.300;8.880;2022-09-03T09:59:31;17.40;99.90
65036;DHT22;51603;49.300;8.880;2022-09-03T10:02:06;17.40;99.90
65036;DHT22;51603;49.300;8.880;2022-09-03T10:04:33;17.50;99.90
65036;DHT22;51603;49.300;8.880;2022-09-03T10:07:29;17.30;99.90
65036;DHT22;51603;49.300;8.880;2022-09-03T10:10:04;17.40;99.90
65036;DHT22;51603;49.300;8.880;2022-09-03T10:12:45;17.40;99.90
65036;DHT22;51603;49.300;8.880;2022-09-03T10:18:25;17.50;99.90
65036;DHT22;51603;49.300;8.880;2022-09-03T10:21:01;17.70;99.90
65036;DHT22;51603;49.300;8.880;2022-09-03T10:23:40;17.80;99.90
65036;DHT22;51603;49.300;8.880;2022-09-03T10:26:16;17.70;99.90
65036;DHT22;51603;49.300;8.880;2022-09-03T10:28:50;17.80;99.90
65036;DHT22;51603;49.300;8.880;2022-09-03T10:31:46;18.10;99.90
65036;DHT22;51603;49.300;8.880;2022-09-03T10:34:28;18.50;99.90
65036;DHT22;51603;49.300;8.880;2022-09-03T10:37:01;18.90;99.90
65036;DHT22;51603;49.300;8.880;2022-09-03T10:45:07;19.10;99.90
65036;DHT22;51603;49.300;8.880;2022-09-03T10:52:57;19.10;99.90
65036;DHT22;51603;49.300;8.880;2022-09-03T11:04:51;19.50;99.90
65036;DHT22;51603;49.300;8.880;2022-09-03T11:07:25;19.90;99.90
65036;DHT22;51603;49.300;8.880;2022-09-03T11:10:28;20.20;99.90
65036;DHT22;51603;49.300;8.880;2022-09-03T11:13:13;20.00;99.90
65036;DHT22;51603;49.300;8.880;2022-09-03T11:18:28;20.00;99.90
65036;DHT22;51603;49.300;8.880;2022-09-03T11:21:01;20.10;99.90
65036;DHT22;51603;49.300;8.880;2022-09-03T11:23:31;20.00;99.90
65036;DHT22;51603;49.300;8.880;2022-09-03T11:26:01;20.20;99.90
65036;DHT22;51603;49.300;8.880;2022-09-03T11:28:40;20.30;99.90
65036;DHT22;51603;49.300;8.880;2022-09-03T11:31:32;20.60;99.90
65036;DHT22;51603;49.300;8.880;2022-09-03T11:34:11;20.80;99.90
65036;DHT22;51603;49.300;8.880;2022-09-03T11:36:38;20.70;99.90
65036;DHT22;51603;49.300;8.880;2022-09-03T11:39:21;20.90;99.90
65036;DHT22;51603;49.300;8.880;2022-09-03T11:42:02;21.10;99.90
65036;DHT22;51603;49.300;8.880;2022-09-03T11:44:36;21.20;99.90
65036;DHT22;51603;49.300;8.880;2022-09-03T11:47:13;21.20;99.90
65036;DHT22;51603;49.300;8.880;2022-09-03T11:49:50;21.70;99.90
65036;DHT22;51603;49.300;8.880;2022-09-03T11:52:30;22.00;99.90
65036;DHT22;51603;49.300;8.880;2022-09-03T11:54:56;22.00;99.90
65036;DHT22;51603;49.300;8.880;2022-09-03T11:57:27;21.90;99.90
65036;DHT22;51603;49.300;8.880;2022-09-03T11:59:53;22.30;99.90
65036;DHT22;51603;49.300;8.880;2022-09-03T12:02:30;22.10;99.90
65036;DHT22;51603;49.300;8.880;2022-09-03T12:07:42;21.70;99.90
65036;DHT22;51603;49.300;8.880;2022-09-03T12:10:12;22.20;99.90
65036;DHT22;51603;49.300;8.880;2022-09-03T12:18:27;22.70;99.90
65036;DHT22;51603;49.300;8.880;2022-09-03T12:23:34;22.70;99.90
65036;DHT22;51603;49.300;8.880;2022-09-03T12:26:06;22.30;99.90
65036;DHT22;51603;49.300;8.880;2022-09-03T12:28:36;22.10;99.90
65036;DHT22;51603;49.300;8.880;2022-09-03T12:31:17;22.00;99.90
65036;DHT22;51603;49.300;8.880;2022-09-03T12:34:02;22.00;99.90
65036;DHT22;51603;49.300;8.880;2022-09-03T12:36:39;22.00;99.90
65036;DHT22;51603;49.300;8.880;2022-09-03T12:39:13;22.20;99.90
65036;DHT22;51603;49.300;8.880;2022-09-03T12:41:56;22.50;99.90
65036;DHT22;51603;49.300;8.880;2022-09-03T12:44:27;22.70;99.90
65036;DHT22;51603;49.300;8.880;2022-09-03T12:47:05;22.80;99.90
65036;DHT22;51603;49.300;8.880;2022-09-03T12:49:36;23.00;99.90
65036;DHT22;51603;49.300;8.880;2022-09-03T12:57:41;23.00;99.90
65036;DHT22;51603;49.300;8.880;2022-09-03T13:00:12;23.10;99.90
65036;DHT22;51603;49.300;8.880;2022-09-03T13:02:55;23.20;99.90
65036;DHT22;51603;49.300;8.880;2022-09-03T13:07:57;23.10;99.90
65036;DHT22;51603;49.300;8.880;2022-09-03T13:10:28;23.10;99.90
65036;DHT22;51603;49.300;8.880;2022-09-03T13:15:40;23.10;99.90
65036;DHT22;51603;49.300;8.880;2022-09-03T13:18:33;23.00;99.90
65036;DHT22;51603;49.300;8.880;2022-09-03T13:32:10;24.00;99.90
65036;DHT22;51603;49.300;8.880;2022-09-03T13:34:47;24.00;99.90
65036;DHT22;51603;49.300;8.880;2022-09-03T13:37:39;23.90;99.90
65036;DHT22;51603;49.300;8.880;2022-09-03T13:40:15;24.00;99.90
65036;DHT22;51603;49.300;8.880;2022-09-03T13:43:15;23.80;99.90
65036;DHT22;51603;49.300;8.880;2022-09-03T13:45:59;23.80;99.90
65036;DHT22;51603;49.300;8.880;2022-09-03T13:48:42;23.90;99.90
65036;DHT22;51603;49.300;8.880;2022-09-03T13:51:36;24.10;99.90
65036;DHT22;51603;49.300;8.880;2022-09-03T13:54:19;24.50;99.90
65036;DHT22;51603;49.300;8.880;2022-09-03T13:56:59;24.50;99.90
65036;DHT22;51603;49.300;8.880;2022-09-03T14:02:26;23.80;99.90
65036;DHT22;51603;49.300;8.880;2022-09-03T14:05:03;23.70;99.90
65036;DHT22;51603;49.300;8.880;2022-09-03T14:18:58;24.30;99.90
65036;DHT22;51603;49.300;8.880;2022-09-03T14:21:40;24.50;99.60
65036;DHT22;51603;49.300;8.880;2022-09-03T14:24:39;24.50;99.40
65036;DHT22;51603;49.300;8.880;2022-09-03T14:27:08;24.10;99.50
65036;DHT22;51603;49.300;8.880;2022-09-03T14:29:35;23.70;99.90
65036;DHT22;51603;49.300;8.880;2022-09-03T14:32:36;23.50;99.90
65036;DHT22;51603;49.300;8.880;2022-09-03T14:35:35;23.20;99.90
65036;DHT22;51603;49.300;8.880;2022-09-03T14:41:09;23.40;99.90
65036;DHT22;51603;49.300;8.880;2022-09-03T14:44:21;23.70;99.90
65036;DHT22;51603;49.300;8.880;2022-09-03T14:49:39;23.80;99.60
65036;DHT22;51603;49.300;8.880;2022-09-03T14:54:57;23.80;99.90
65036;DHT22;51603;49.300;8.880;2022-09-03T14:57:33;23.60;99.90
65036;DHT22;51603;49.300;8.880;2022-09-03T15:00:20;23.40;99.90
65036;DHT22;51603;49.300;8.880;2022-09-03T15:03:12;23.40;99.90
65036;DHT22;51603;49.300;8.880;2022-09-03T15:06:01;23.30;99.90
65036;DHT22;51603;49.300;8.880;2022-09-03T15:09:31;23.10;99.90
65036;DHT22;51603;49.300;8.880;2022-09-03T15:11:32;23.20;99.90
65036;DHT22;51603;49.300;8.880;2022-09-03T15:22:53;23.40;99.90
65036;DHT22;51603;49.300;8.880;2022-09-03T15:25:47;23.30;99.90
65036;DHT22;51603;49.300;8.880;2022-09-03T15:31:17;22.90;99.90
65036;DHT22;51603;49.300;8.880;2022-09-03T15:36:35;22.80;99.90
65036;DHT22;51603;49.300;8.880;2022-09-03T15:39:18;22.60;99.90
65036;DHT22;51603;49.300;8.880;2022-09-03T15:41:52;22.30;99.90
65036;DHT22;51603;49.300;8.880;2022-09-03T15:44:22;22.20;99.90
65036;DHT22;51603;49.300;8.880;2022-09-03T15:46:57;22.10;99.90
65036;DHT22;51603;49.300;8.880;2022-09-03T15:55:41;21.80;99.90
65036;DHT22;51603;49.300;8.880;2022-09-03T15:57:52;21.70;99.90
65036;DHT22;51603;49.300;8.880;2022-09-03T16:00:47;21.70;99.90
65036;DHT22;51603;49.300;8.880;2022-09-03T16:03:18;21.60;99.90
65036;DHT22;51603;49.300;8.880;2022-09-03T16:08:48;21.30;99.90
65036;DHT22;51603;49.300;8.880;2022-09-03T16:14:05;21.10;99.90
65036;DHT22;51603;49.300;8.880;2022-09-03T16:22:03;21.20;99.90
65036;DHT22;51603;49.300;8.880;2022-09-03T16:24:53;21.20;99.90
65036;DHT22;51603;49.300;8.880;2022-09-03T16:27:32;21.20;99.90
65036;DHT22;51603;49.300;8.880;2022-09-03T16:30:07;21.10;99.90
65036;DHT22;51603;49.300;8.880;2022-09-03T16:35:30;21.00;99.90
65036;DHT22;51603;49.300;8.880;2022-09-03T16:41:30;20.90;99.90
65036;DHT22;51603;49.300;8.880;2022-09-03T16:49:45;20.80;99.90
65036;DHT22;51603;49.300;8.880;2022-09-03T16:52:39;20.80;99.90
65036;DHT22;51603;49.300;8.880;2022-09-03T16:55:23;20.80;99.90
65036;DHT22;51603;49.300;8.880;2022-09-03T16:57:59;20.80;99.90
65036;DHT22;51603;49.300;8.880;2022-09-03T17:00:41;20.70;99.90
65036;DHT22;51603;49.300;8.880;2022-09-03T17:11:58;20.70;99.90
65036;DHT22;51603;49.300;8.880;2022-09-03T17:17:14;20.70;99.90
65036;DHT22;51603;49.300;8.880;2022-09-03T17:20:03;20.60;99.90
65036;DHT22;51603;49.300;8.880;2022-09-03T17:26:04;20.60;99.90
65036;DHT22;51603;49.300;8.880;2022-09-03T17:31:42;20.60;99.90
65036;DHT22;51603;49.300;8.880;2022-09-03T17:34:39;20.60;99.90
65036;DHT22;51603;49.300;8.880;2022-09-03T17:42:53;20.50;99.90
65036;DHT22;51603;49.300;8.880;2022-09-03T17:48:35;20.50;99.90
65036;DHT22;51603;49.300;8.880;2022-09-03T17:51:30;20.50;99.90
65036;DHT22;51603;49.300;8.880;2022-09-03T17:57:17;20.40;99.90
65036;DHT22;51603;49.300;8.880;2022-09-03T18:02:53;20.20;99.90
65036;DHT22;51603;49.300;8.880;2022-09-03T18:05:24;20.20;99.90
65036;DHT22;51603;49.300;8.880;2022-09-03T18:08:07;20.10;99.90
65036;DHT22;51603;49.300;8.880;2022-09-03T18:13:58;20.00;99.90
65036;DHT22;51603;49.300;8.880;2022-09-03T18:16:27;19.80;99.90
65036;DHT22;51603;49.300;8.880;2022-09-03T18:21:35;19.70;99.90
65036;DHT22;51603;49.300;8.880;2022-09-03T18:24:40;19.70;99.90
65036;DHT22;51603;49.300;8.880;2022-09-03T18:30:18;19.50;99.90
65036;DHT22;51603;49.300;8.880;2022-09-03T18:33:03;19.50;99.90
65036;DHT22;51603;49.300;8.880;2022-09-03T18:35:47;19.50;99.90
65036;DHT22;51603;49.300;8.880;2022-09-03T18:38:37;19.40;99.90
65036;DHT22;51603;49.300;8.880;2022-09-03T18:41:34;19.40;99.90
65036;DHT22;51603;49.300;8.880;2022-09-03T18:44:41;19.30;99.90
65036;DHT22;51603;49.300;8.880;2022-09-03T18:48:04;19.20;99.90
65036;DHT22;51603;49.300;8.880;2022-09-03T18:51:09;19.10;99.90
65036;DHT22;51603;49.300;8.880;2022-09-03T18:56:52;19.00;99.90
65036;DHT22;51603;49.300;8.880;2022-09-03T19:02:58;18.90;99.90
65036;DHT22;51603;49.300;8.880;2022-09-03T19:15:23;18.70;99.90
65036;DHT22;51603;49.300;8.880;2022-09-03T19:21:54;18.50;99.90
65036;DHT22;51603;49.300;8.880;2022-09-03T19:24:36;18.40;99.90
65036;DHT22;51603;49.300;8.880;2022-09-03T19:30:51;18.30;99.90
65036;DHT22;51603;49.300;8.880;2022-09-03T19:33:56;18.30;99.90
65036;DHT22;51603;49.300;8.880;2022-09-03T19:37:14;18.20;99.90
65036;DHT22;51603;49.300;8.880;2022-09-03T19:49:31;18.00;99.90
65036;DHT22;51603;49.300;8.880;2022-09-03T19:52:38;18.00;99.90
65036;DHT22;51603;49.300;8.880;2022-09-03T19:55:26;18.00;99.90
65036;DHT22;51603;49.300;8.880;2022-09-03T19:58:17;17.90;99.90
65036;DHT22;51603;49.300;8.880;2022-09-03T20:01:01;17.90;99.90
65036;DHT22;51603;49.300;8.880;2022-09-03T20:03:45;17.90;99.90
65036;DHT22;51603;49.300;8.880;2022-09-03T20:06:32;17.90;99.90
65036;DHT22;51603;49.300;8.880;2022-09-03T20:09:20;17.80;99.90
65036;DHT22;51603;49.300;8.880;2022-09-03T20:12:07;17.80;99.90
65036;DHT22;51603;49.300;8.880;2022-09-03T20:14:34;17.70;99.90
65036;DHT22;51603;49.300;8.880;2022-09-03T20:17:25;17.70;99.90
65036;DHT22;51603;49.300;8.880;2022-09-03T20:20:23;17.60;99.90
65036;DHT22;51603;49.300;8.880;2022-09-03T20:23:02;17.60;99.90
65036;DHT22;51603;49.300;8.880;2022-09-03T20:25:45;17.60;99.90
65036;DHT22;51603;49.300;8.880;2022-09-03T20:28:28;17.60;99.90
65036;DHT22;51603;49.300;8.880;2022-09-03T20:31:04;17.60;99.90
65036;DHT22;51603;49.300;8.880;2022-09-03T20:33:49;17.50;99.90
65036;DHT22;51603;49.300;8.880;2022-09-03T20:39:18;17.50;99.90
65036;DHT22;51603;49.300;8.880;2022-09-03T20:42:06;17.50;99.90
65036;DHT22;51603;49.300;8.880;2022-09-03T20:50:30;17.40;99.90
65036;DHT22;51603;49.300;8.880;2022-09-03T20:55:44;17.30;99.90